KFDR/FDR METAR and TAF weather

Enter ICAO airport designator
Station Type Date Time Source
KFDR METAR 2019/04/22 18:41 UTC NOAA

KFDR 221841Z AUTO 14011KT 10SM BKN028 BKN035 24/18 A2996 RMK AO2 T02390178


Station Type Date Time Source
KFDR Decoded METAR 2019/04/22 18:41 UTC NOAA

FREDERICK MUNICIPAL AIRPORT, OK, United States (KFDR) 34-21N 98-59W 377M
Apr 22, 2019 - 02:41 PM EDT / 2019.04.22 1841 UTC
Wind: from the SE (140 degrees) at 13 MPH (11 KT):0
Visibility: 10 mile(s):0
Sky conditions: mostly cloudy
Temperature: 75.0 F (23.9 C)
Dew Point: 64.0 F (17.8 C)
Relative Humidity: 68%
Pressure (altimeter): 29.96 in. Hg (1014 hPa)
ob: KFDR 221841Z AUTO 14011KT 10SM BKN028 BKN035 24/18 A2996 RMK AO2 T02390178
cycle: 18

Station Type Date Time Source
KFDR TAF UTC NOAA

Error!

Example: see airport list